Time;durP1;ratioP1;P1;durP2;ratioP2;P2;SDS_P1;SDS_P2;PMS_P1;PMS_P2;Temp;Humidity;BMP_temperature;BMP_pressure;BME280_temperature;BME280_humidity;BME280_pressure;Samples;Min_cycle;Max_cycle;Signal;HPM_P1;HPM_P2
2023/02/10 00:01:23;;;;;;;15.82;11.50;;;0.20;99.90;;;;;;4923401;29;20232;-78
2023/02/10 00:03:50;;;;;;;17.25;11.07;;;0.10;99.90;;;;;;4921875;29;20212;-77
2023/02/10 00:06:19;;;;;;;19.33;12.60;;;0.20;99.90;;;;;;4938647;29;20218;-77
2023/02/10 00:08:49;;;;;;;14.30;9.48;;;0.20;99.90;;;;;;4938489;29;20243;-77
2023/02/10 00:11:16;;;;;;;17.52;10.98;;;0.20;99.90;;;;;;4927433;29;20224;-78
2023/02/10 00:13:44;;;;;;;20.92;11.30;;;0.20;99.90;;;;;;4926490;29;20211;-78
2023/02/10 00:16:14;;;;;;;20.05;10.45;;;0.10;99.90;;;;;;4934877;29;20259;-79
2023/02/10 00:18:41;;;;;;;19.70;11.68;;;0.10;99.90;;;;;;4925629;29;20216;-78
2023/02/10 00:21:14;;;;;;;16.27;10.63;;;0.10;99.90;;;;;;4934024;29;20582;-78
2023/02/10 00:23:43;;;;;;;18.90;11.68;;;0.00;99.90;;;;;;4922518;29;20235;-77
2023/02/10 00:26:12;;;;;;;17.55;10.55;;;-0.10;99.90;;;;;;4931302;29;20207;-77
2023/02/10 00:28:39;;;;;;;13.40;10.63;;;0.00;99.90;;;;;;4930062;29;20251;-78
2023/02/10 00:31:08;;;;;;;15.80;11.52;;;0.00;99.90;;;;;;4934087;29;20208;-78
2023/02/10 00:33:35;;;;;;;16.95;12.63;;;0.00;99.90;;;;;;4929928;29;20224;-78
2023/02/10 00:36:11;;;;;;;17.23;11.90;;;0.00;99.90;;;;;;4932562;29;20214;-79
2023/02/10 00:38:39;;;;;;;15.82;10.13;;;-0.10;99.90;;;;;;4931068;29;20834;-77
2023/02/10 00:41:09;;;;;;;17.25;11.25;;;-0.10;99.90;;;;;;4932054;29;20476;-78
2023/02/10 00:43:39;;;;;;;17.10;11.18;;;-0.20;99.90;;;;;;4929870;29;20215;-78
2023/02/10 00:46:06;;;;;;;18.63;12.35;;;-0.40;99.90;;;;;;4931565;29;20247;-77
2023/02/10 00:48:33;;;;;;;15.98;10.70;;;-0.40;99.90;;;;;;4931501;29;20263;-77
2023/02/10 00:51:01;;;;;;;19.33;12.68;;;-0.40;99.90;;;;;;4927924;29;20231;-76
2023/02/10 00:53:28;;;;;;;21.33;13.18;;;-0.40;99.90;;;;;;4934189;29;20215;-79
2023/02/10 00:55:55;;;;;;;23.48;13.27;;;-0.50;99.90;;;;;;4920722;29;20208;-78
2023/02/10 00:58:23;;;;;;;20.95;12.32;;;-0.50;99.90;;;;;;4935204;29;20396;-78
2023/02/10 01:00:52;;;;;;;20.05;14.20;;;-0.70;99.90;;;;;;4927840;29;20672;-77
2023/02/10 01:03:19;;;;;;;18.42;12.70;;;-0.60;99.90;;;;;;4935588;29;20238;-78
2023/02/10 01:05:46;;;;;;;28.23;14.30;;;-0.50;99.90;;;;;;4931309;29;20215;-77
2023/02/10 01:08:14;;;;;;;18.50;12.43;;;-0.40;99.90;;;;;;4927427;29;20204;-77
2023/02/10 01:10:41;;;;;;;20.90;11.48;;;-0.50;99.90;;;;;;4928007;29;20232;-77
2023/02/10 01:13:11;;;;;;;19.48;12.45;;;-0.50;99.90;;;;;;4928740;29;20215;-77
2023/02/10 01:15:43;;;;;;;19.83;12.07;;;-0.60;99.90;;;;;;4935136;29;20786;-78
2023/02/10 01:18:11;;;;;;;21.85;13.45;;;-0.70;99.90;;;;;;4927410;29;20398;-77
2023/02/10 01:20:40;;;;;;;19.27;11.65;;;-0.70;99.90;;;;;;4928647;29;20216;-77
2023/02/10 01:23:09;;;;;;;19.52;12.80;;;-0.70;99.90;;;;;;4922392;29;20259;-78
2023/02/10 01:25:37;;;;;;;22.70;13.65;;;-0.70;99.90;;;;;;4929426;29;20212;-78
2023/02/10 01:28:05;;;;;;;20.25;13.30;;;-0.80;99.90;;;;;;4931111;29;20212;-77
2023/02/10 01:30:32;;;;;;;19.70;12.65;;;-0.60;99.90;;;;;;4926889;29;20232;-77
2023/02/10 01:32:59;;;;;;;21.55;12.90;;;-0.70;99.90;;;;;;4927500;29;20231;-77
2023/02/10 01:35:26;;;;;;;22.77;14.90;;;-0.80;99.90;;;;;;4928349;29;20212;-77
2023/02/10 01:37:54;;;;;;;21.33;14.57;;;-0.80;99.90;;;;;;4934897;29;20216;-77
2023/02/10 01:40:23;;;;;;;28.33;15.95;;;-0.90;99.90;;;;;;4926959;29;20213;-77
2023/02/10 01:42:50;;;;;;;25.92;16.42;;;-0.90;99.90;;;;;;4916226;29;20255;-77
2023/02/10 01:45:27;;;;;;;21.23;13.40;;;-1.00;99.90;;;;;;4925141;29;20216;-76
2023/02/10 01:47:56;;;;;;;21.70;14.85;;;-1.10;99.90;;;;;;4915039;29;20218;-76
2023/02/10 01:50:28;;;;;;;22.00;14.00;;;-1.10;99.90;;;;;;4921968;29;20236;-77
2023/02/10 01:52:56;;;;;;;29.92;15.93;;;-1.10;99.90;;;;;;4923284;29;20208;-77
2023/02/10 01:55:29;;;;;;;22.77;14.13;;;-1.10;99.90;;;;;;4926269;29;20204;-78
2023/02/10 01:57:56;;;;;;;21.33;14.25;;;-0.90;99.90;;;;;;4939186;29;20265;-77
2023/02/10 02:00:24;;;;;;;22.80;14.32;;;-0.90;99.90;;;;;;4939805;29;20219;-77
2023/02/10 02:02:52;;;;;;;21.13;13.25;;;-1.00;99.90;;;;;;4926745;29;20215;-77
2023/02/10 02:05:30;;;;;;;20.88;14.15;;;-0.90;99.90;;;;;;4941176;29;20210;-77
2023/02/10 02:08:26;;;;;;;19.27;12.68;;;-1.00;99.90;;;;;;4930915;29;20233;-78
2023/02/10 02:11:14;;;;;;;20.35;12.68;;;-1.00;99.90;;;;;;4935956;29;20300;-78
2023/02/10 02:14:13;;;;;;;19.27;12.00;;;-1.10;99.90;;;;;;4934541;29;20251;-77
2023/02/10 02:16:59;;;;;;;23.75;12.20;;;-1.30;99.90;;;;;;4936904;29;20464;-77
2023/02/10 02:19:41;;;;;;;20.25;13.13;;;-1.40;99.90;;;;;;4938987;29;20211;-78
2023/02/10 02:22:21;;;;;;;22.88;14.38;;;-1.40;99.90;;;;;;4933866;29;20259;-77
2023/02/10 02:25:19;;;;;;;22.10;15.18;;;-1.30;99.90;;;;;;4937190;29;20211;-77
2023/02/10 02:27:55;;;;;;;20.25;13.73;;;-1.00;99.90;;;;;;4933041;29;20260;-77
2023/02/10 02:30:41;;;;;;;21.23;13.25;;;-1.00;99.90;;;;;;4929950;29;20227;-77
2023/02/10 02:33:25;;;;;;;21.10;13.00;;;-1.20;99.90;;;;;;4925248;29;20219;-77
2023/02/10 02:36:07;;;;;;;22.90;13.15;;;-1.20;99.90;;;;;;4943959;29;20232;-79
2023/02/10 02:38:39;;;;;;;17.52;11.48;;;-1.40;99.90;;;;;;4940411;29;20523;-79
2023/02/10 02:41:07;;;;;;;20.23;13.48;;;-1.20;99.90;;;;;;4933154;29;20215;-77
2023/02/10 02:43:35;;;;;;;19.67;13.90;;;-1.30;99.90;;;;;;4933372;29;20211;-76
2023/02/10 02:46:35;;;;;;;17.90;12.77;;;-1.30;99.90;;;;;;4937930;29;20290;-78
2023/02/10 02:49:25;;;;;;;22.58;14.85;;;-1.20;99.90;;;;;;4930720;29;20208;-78
2023/02/10 02:52:08;;;;;;;23.67;14.52;;;-1.30;99.90;;;;;;4931481;29;20272;-77
2023/02/10 02:55:03;;;;;;;22.90;14.70;;;-1.20;99.90;;;;;;4938291;29;20267;-78
2023/02/10 02:57:51;;;;;;;20.38;13.93;;;-1.30;99.90;;;;;;4930956;29;20281;-77
2023/02/10 03:00:26;;;;;;;17.63;12.88;;;-1.20;99.90;;;;;;4940395;29;20211;-77
2023/02/10 03:02:54;;;;;;;21.25;12.63;;;-1.20;99.90;;;;;;4918476;29;20264;-77
2023/02/10 03:05:23;;;;;;;20.13;12.38;;;-1.20;99.90;;;;;;4936835;29;20211;-77
2023/02/10 03:07:50;;;;;;;20.15;13.07;;;-1.20;99.90;;;;;;4925080;29;20208;-76
2023/02/10 03:10:17;;;;;;;22.55;14.93;;;-1.30;99.90;;;;;;4937448;29;20275;-78
2023/02/10 03:12:44;;;;;;;18.35;13.43;;;-1.30;99.90;;;;;;4938021;29;20199;-78
2023/02/10 03:15:11;;;;;;;21.98;12.90;;;-1.30;99.90;;;;;;4932761;29;20211;-77
2023/02/10 03:17:39;;;;;;;24.30;13.43;;;-1.50;99.90;;;;;;4938356;29;20255;-77
2023/02/10 03:20:06;;;;;;;18.25;15.07;;;-1.60;99.90;;;;;;4935484;29;20270;-77
2023/02/10 03:22:33;;;;;;;19.70;14.18;;;-1.40;99.90;;;;;;4937409;29;20215;-76
2023/02/10 03:25:00;;;;;;;18.10;12.75;;;-1.50;99.90;;;;;;4934459;29;20215;-78
2023/02/10 03:27:27;;;;;;;20.98;13.23;;;-1.60;99.90;;;;;;4936100;29;20216;-77
2023/02/10 03:29:54;;;;;;;19.52;13.32;;;-1.60;99.90;;;;;;4932484;29;20559;-78
2023/02/10 03:32:21;;;;;;;22.08;13.07;;;-1.60;99.90;;;;;;4936221;29;20259;-78
2023/02/10 03:34:48;;;;;;;19.25;14.30;;;-1.60;99.90;;;;;;4935799;29;20207;-78
2023/02/10 03:37:15;;;;;;;24.13;14.13;;;-1.60;99.90;;;;;;4935819;29;20223;-78
2023/02/10 03:39:42;;;;;;;22.75;16.95;;;-1.60;99.90;;;;;;4938092;29;20212;-77
2023/02/10 03:42:09;;;;;;;22.48;14.13;;;-1.60;99.90;;;;;;4934874;29;20200;-78
2023/02/10 03:44:36;;;;;;;23.05;14.60;;;-1.60;99.90;;;;;;4935070;29;20212;-77
2023/02/10 03:47:03;;;;;;;24.90;14.40;;;-1.50;99.90;;;;;;4934363;29;20199;-78
2023/02/10 03:49:30;;;;;;;23.92;14.52;;;-1.60;99.90;;;;;;4935013;29;20459;-78
2023/02/10 03:51:56;;;;;;;18.83;13.07;;;-1.50;99.90;;;;;;4939291;29;20274;-78
2023/02/10 03:54:24;;;;;;;22.25;13.77;;;-1.60;99.90;;;;;;4932187;29;20216;-78
2023/02/10 03:56:51;;;;;;;21.27;13.40;;;-1.60;99.90;;;;;;4934057;29;20517;-77
2023/02/10 03:59:17;;;;;;;23.63;15.13;;;-1.60;99.90;;;;;;4936680;29;20212;-78
2023/02/10 04:01:45;;;;;;;22.10;14.25;;;-1.60;99.90;;;;;;4936024;29;20215;-76
2023/02/10 04:04:11;;;;;;;20.38;12.82;;;-1.50;99.90;;;;;;4939919;29;20374;-78
2023/02/10 04:06:39;;;;;;;23.50;14.55;;;-1.60;99.90;;;;;;4934142;29;20211;-78
2023/02/10 04:09:05;;;;;;;22.20;14.48;;;-1.60;99.90;;;;;;4939412;29;20515;-77
2023/02/10 04:11:32;;;;;;;22.10;14.18;;;-1.40;99.90;;;;;;4931380;29;20473;-78
2023/02/10 04:13:59;;;;;;;16.88;12.65;;;-1.40;99.90;;;;;;4938930;29;20211;-77
2023/02/10 04:16:27;;;;;;;21.98;13.75;;;-1.50;99.90;;;;;;4923001;29;20223;-77
2023/02/10 04:18:54;;;;;;;27.38;15.70;;;-1.40;99.90;;;;;;4928964;29;20216;-77
2023/02/10 04:21:22;;;;;;;27.20;15.25;;;-1.60;99.90;;;;;;4929328;29;20513;-78
2023/02/10 04:23:48;;;;;;;22.83;15.52;;;-1.60;99.90;;;;;;4926456;29;20212;-76
2023/02/10 04:26:16;;;;;;;20.73;16.20;;;-1.50;99.90;;;;;;4925661;29;20208;-78
2023/02/10 04:28:43;;;;;;;24.27;16.33;;;-1.70;99.90;;;;;;4923978;29;20603;-78
2023/02/10 04:31:10;;;;;;;28.38;17.88;;;-1.80;99.90;;;;;;4936569;29;20242;-76
2023/02/10 04:33:37;;;;;;;26.23;16.60;;;-1.80;99.90;;;;;;4939011;29;20481;-77
2023/02/10 04:36:05;;;;;;;22.52;16.33;;;-1.80;99.90;;;;;;4932341;29;20215;-76
2023/02/10 04:38:32;;;;;;;31.80;17.15;;;-1.80;99.90;;;;;;4936237;29;20286;-77
2023/02/10 04:40:59;;;;;;;26.10;16.60;;;-1.80;99.90;;;;;;4939318;29;20295;-79
2023/02/10 04:43:26;;;;;;;22.67;15.82;;;-1.80;99.90;;;;;;4934283;29;20212;-77
2023/02/10 04:45:53;;;;;;;23.25;15.68;;;-1.90;99.90;;;;;;4933781;29;20269;-77
2023/02/10 04:48:21;;;;;;;24.58;14.85;;;-1.80;99.90;;;;;;4931793;29;20213;-78
2023/02/10 04:50:48;;;;;;;23.48;14.80;;;-1.80;99.90;;;;;;4923011;29;20295;-77
2023/02/10 04:53:15;;;;;;;26.65;15.15;;;-1.80;99.90;;;;;;4934743;29;20281;-76
2023/02/10 04:55:42;;;;;;;36.30;15.48;;;-1.80;99.90;;;;;;4937383;29;20212;-79
2023/02/10 04:58:08;;;;;;;23.02;15.95;;;-1.70;99.90;;;;;;4939472;29;20274;-78
2023/02/10 05:00:35;;;;;;;22.63;17.20;;;-1.70;99.90;;;;;;4930914;29;20216;-78
2023/02/10 05:03:02;;;;;;;32.05;16.85;;;-1.70;99.90;;;;;;4924586;29;20207;-78
2023/02/10 05:05:29;;;;;;;24.00;16.42;;;-1.80;99.90;;;;;;4921520;29;20212;-78
2023/02/10 05:07:57;;;;;;;29.10;17.92;;;-1.70;99.90;;;;;;4921362;29;20591;-77
2023/02/10 05:10:23;;;;;;;23.40;15.65;;;-1.80;99.90;;;;;;4925071;29;21502;-77
2023/02/10 05:12:50;;;;;;;23.67;15.75;;;-1.80;99.90;;;;;;4924169;29;20207;-78
2023/02/10 05:15:17;;;;;;;24.70;14.40;;;-1.90;99.90;;;;;;4928385;29;20411;-78
2023/02/10 05:17:44;;;;;;;30.48;14.50;;;-1.70;99.90;;;;;;4927386;29;20212;-78
2023/02/10 05:20:11;;;;;;;24.50;14.63;;;-1.80;99.90;;;;;;4931806;29;20204;-78
2023/02/10 05:22:39;;;;;;;22.80;13.73;;;-1.60;99.90;;;;;;4932860;29;20215;-80
2023/02/10 05:25:07;;;;;;;21.27;14.20;;;-1.60;99.90;;;;;;4924172;29;20207;-78
2023/02/10 05:27:36;;;;;;;22.10;15.05;;;-1.30;99.90;;;;;;4923276;29;20212;-80
2023/02/10 05:30:04;;;;;;;29.00;17.52;;;-1.10;99.90;;;;;;4926428;29;20248;-77
2023/02/10 05:32:32;;;;;;;20.05;14.52;;;-0.90;99.90;;;;;;4927703;29;20441;-78
2023/02/10 05:34:59;;;;;;;25.83;15.10;;;-0.70;99.90;;;;;;4925249;29;20222;-76
2023/02/10 05:37:26;;;;;;;22.83;14.48;;;-0.60;99.90;;;;;;4932106;29;20219;-79
2023/02/10 05:39:53;;;;;;;21.55;14.10;;;-0.50;99.90;;;;;;4929115;29;20228;-79
2023/02/10 05:42:20;;;;;;;21.67;13.40;;;-0.30;99.90;;;;;;4932698;29;20215;-77
2023/02/10 05:44:47;;;;;;;31.13;14.88;;;-0.20;99.90;;;;;;4926538;29;20211;-79
2023/02/10 05:47:14;;;;;;;21.80;14.65;;;-0.20;99.90;;;;;;4920879;29;20219;-77
2023/02/10 05:49:41;;;;;;;21.00;14.13;;;-0.10;99.90;;;;;;4930885;29;20432;-79
2023/02/10 05:52:08;;;;;;;23.55;13.85;;;0.10;99.90;;;;;;4929278;29;20286;-77
2023/02/10 05:54:35;;;;;;;24.45;13.00;;;0.20;99.90;;;;;;4927612;29;20208;-77
2023/02/10 05:57:03;;;;;;;23.70;15.27;;;0.10;99.90;;;;;;4918026;29;20208;-76
2023/02/10 05:59:30;;;;;;;22.85;14.77;;;0.10;99.90;;;;;;4920014;29;20244;-76
2023/02/10 06:01:57;;;;;;;26.90;14.35;;;0.30;99.90;;;;;;4914849;29;20212;-77
2023/02/10 06:04:24;;;;;;;20.83;13.70;;;0.50;99.90;;;;;;4918862;29;20230;-78
2023/02/10 06:06:51;;;;;;;21.67;13.70;;;0.50;99.90;;;;;;4927560;29;20271;-80
2023/02/10 06:09:18;;;;;;;24.40;13.15;;;0.50;99.90;;;;;;4930337;29;20251;-78
2023/02/10 06:11:45;;;;;;;17.20;13.00;;;0.50;99.90;;;;;;4929409;29;20254;-78
2023/02/10 06:14:12;;;;;;;27.80;14.02;;;0.50;99.90;;;;;;4922009;29;20208;-77
2023/02/10 06:16:41;;;;;;;31.00;14.35;;;0.70;99.90;;;;;;4935621;29;20336;-80
2023/02/10 06:19:08;;;;;;;19.05;13.02;;;0.80;99.90;;;;;;4938154;29;20223;-79
2023/02/10 06:21:34;;;;;;;18.23;13.80;;;0.90;99.90;;;;;;4936026;29;20216;-78
2023/02/10 06:24:02;;;;;;;29.63;15.52;;;0.80;99.90;;;;;;4925349;29;20497;-77
2023/02/10 06:26:28;;;;;;;19.17;12.75;;;0.80;99.90;;;;;;4920073;29;20259;-78
2023/02/10 06:28:56;;;;;;;26.27;14.75;;;0.80;99.90;;;;;;4934305;29;20232;-76
2023/02/10 06:31:25;;;;;;;23.02;14.23;;;1.00;99.90;;;;;;4926871;29;20240;-79
2023/02/10 06:33:52;;;;;;;25.42;15.80;;;1.10;99.90;;;;;;4925913;29;20257;-78
2023/02/10 06:36:19;;;;;;;28.10;15.98;;;1.30;99.90;;;;;;4921529;29;20741;-78
2023/02/10 06:38:47;;;;;;;25.95;15.55;;;1.10;99.90;;;;;;4933136;29;20267;-78
2023/02/10 06:41:15;;;;;;;28.02;15.63;;;1.20;99.90;;;;;;4928993;29;20215;-78
2023/02/10 06:43:42;;;;;;;38.67;17.45;;;1.10;99.90;;;;;;4927083;29;20216;-80
2023/02/10 06:46:10;;;;;;;24.63;17.15;;;1.10;99.90;;;;;;4932201;29;20834;-77
2023/02/10 06:48:38;;;;;;;27.17;17.08;;;1.10;99.90;;;;;;4927866;29;20216;-77
2023/02/10 06:51:06;;;;;;;27.35;16.58;;;1.20;99.90;;;;;;4929128;29;20287;-77
2023/02/10 06:53:33;;;;;;;35.20;16.15;;;1.40;99.90;;;;;;4931759;29;20839;-77
2023/02/10 06:56:00;;;;;;;26.42;16.10;;;1.30;99.90;;;;;;4927520;29;20231;-79
2023/02/10 06:58:27;;;;;;;31.42;14.90;;;1.30;99.90;;;;;;4926792;29;20248;-77
2023/02/10 07:00:54;;;;;;;28.00;15.27;;;1.30;99.90;;;;;;4926326;29;20235;-77
2023/02/10 07:03:22;;;;;;;25.33;15.23;;;1.40;99.90;;;;;;4928712;29;20200;-78
2023/02/10 07:05:49;;;;;;;37.13;16.30;;;1.40;99.90;;;;;;4919122;29;20267;-78
2023/02/10 07:08:17;;;;;;;30.75;14.13;;;1.60;99.90;;;;;;4922579;29;20200;-80
2023/02/10 07:10:43;;;;;;;21.73;14.35;;;1.80;99.90;;;;;;4929962;29;20215;-79
2023/02/10 07:13:10;;;;;;;30.33;18.73;;;1.80;99.90;;;;;;4937342;29;20523;-77
2023/02/10 07:15:37;;;;;;;18.17;13.07;;;1.80;99.90;;;;;;4935947;29;20212;-78
2023/02/10 07:18:04;;;;;;;23.55;13.80;;;1.80;99.90;;;;;;4936925;29;20239;-78
2023/02/10 07:20:31;;;;;;;19.40;13.93;;;1.80;99.90;;;;;;4935425;29;20271;-78
2023/02/10 07:22:58;;;;;;;22.52;13.50;;;1.80;99.90;;;;;;4934809;29;20519;-77
2023/02/10 07:25:25;;;;;;;21.83;13.07;;;1.90;99.90;;;;;;4935037;29;20217;-77
2023/02/10 07:27:52;;;;;;;22.83;12.52;;;1.90;99.90;;;;;;4932670;29;20296;-78
2023/02/10 07:30:18;;;;;;;24.30;14.35;;;2.00;99.90;;;;;;4926849;29;20279;-77
2023/02/10 07:32:45;;;;;;;30.63;14.48;;;2.00;99.90;;;;;;4927761;29;20293;-78
2023/02/10 07:35:13;;;;;;;21.02;13.43;;;2.20;99.90;;;;;;4926260;29;20283;-78
2023/02/10 07:37:39;;;;;;;27.92;16.05;;;2.40;99.90;;;;;;4930435;29;20213;-79
2023/02/10 07:40:07;;;;;;;19.27;10.88;;;2.40;99.90;;;;;;4925964;29;20249;-78
2023/02/10 07:42:34;;;;;;;25.30;13.38;;;2.30;99.90;;;;;;4931434;29;20355;-79
2023/02/10 07:45:02;;;;;;;22.80;13.73;;;2.20;99.90;;;;;;4931298;29;20734;-80
2023/02/10 07:47:29;;;;;;;20.17;13.60;;;2.20;99.90;;;;;;4932047;29;20212;-79
2023/02/10 07:49:56;;;;;;;19.55;12.02;;;2.10;99.90;;;;;;4927075;29;20210;-78
2023/02/10 07:52:23;;;;;;;29.80;13.10;;;2.20;99.90;;;;;;4933132;29;20236;-79
2023/02/10 07:54:50;;;;;;;26.13;11.52;;;2.20;99.90;;;;;;4927753;29;20214;-78
2023/02/10 07:57:17;;;;;;;19.48;12.70;;;2.20;99.90;;;;;;4929683;29;20219;-78
2023/02/10 07:59:44;;;;;;;20.88;12.10;;;2.20;99.90;;;;;;4929857;29;20211;-79
2023/02/10 08:02:13;;;;;;;23.13;12.60;;;2.30;99.90;;;;;;4918231;29;20266;-79
2023/02/10 08:04:39;;;;;;;22.52;11.70;;;2.50;99.90;;;;;;4925070;29;20521;-77
2023/02/10 08:07:06;;;;;;;19.00;12.70;;;2.50;99.90;;;;;;4923881;29;20786;-78
2023/02/10 08:09:33;;;;;;;27.05;14.68;;;2.40;99.90;;;;;;4935808;29;20209;-78
2023/02/10 08:12:00;;;;;;;20.98;11.98;;;2.50;99.90;;;;;;4941657;29;20268;-79
2023/02/10 08:14:27;;;;;;;19.73;13.43;;;2.50;99.90;;;;;;4941823;29;20205;-77
2023/02/10 08:16:55;;;;;;;26.48;13.35;;;2.70;99.90;;;;;;4926951;29;20202;-78
2023/02/10 08:19:22;;;;;;;25.35;14.07;;;2.70;99.90;;;;;;4926555;29;20218;-80
2023/02/10 08:21:49;;;;;;;18.08;12.30;;;2.90;99.90;;;;;;4927657;29;20277;-82
2023/02/10 08:24:17;;;;;;;25.02;13.60;;;3.10;99.90;;;;;;4927978;29;20206;-81
2023/02/10 08:26:45;;;;;;;25.23;13.45;;;3.10;99.90;;;;;;4928402;29;20240;-81
2023/02/10 08:29:12;;;;;;;22.08;11.38;;;3.00;99.90;;;;;;4926748;29;20221;-83
2023/02/10 08:31:39;;;;;;;21.98;14.00;;;3.00;99.90;;;;;;4935974;29;20242;-83
2023/02/10 08:34:16;;;;;;;26.70;14.40;;;3.10;99.90;;;;;;4923463;29;20242;-80
2023/02/10 08:36:44;;;;;;;28.10;15.50;;;2.90;99.90;;;;;;4923208;29;20211;-80
2023/02/10 08:39:12;;;;;;;25.00;15.55;;;2.80;99.90;;;;;;4930673;29;20217;-80
2023/02/10 08:41:39;;;;;;;27.50;17.55;;;2.90;99.90;;;;;;4924660;29;20272;-81
2023/02/10 08:44:07;;;;;;;27.88;17.23;;;2.80;99.90;;;;;;4930258;29;20573;-80
2023/02/10 08:46:34;;;;;;;31.83;17.13;;;2.90;99.90;;;;;;4930341;29;20238;-82
2023/02/10 08:49:02;;;;;;;28.42;17.33;;;3.10;99.90;;;;;;4935192;29;20224;-80
2023/02/10 08:51:30;;;;;;;22.05;15.02;;;3.20;99.90;;;;;;4935198;29;20270;-80
2023/02/10 08:53:57;;;;;;;26.85;17.08;;;3.40;99.90;;;;;;4930227;29;20207;-81
2023/02/10 08:56:25;;;;;;;27.38;16.83;;;3.30;99.90;;;;;;4924240;29;20301;-81
2023/02/10 08:58:52;;;;;;;32.30;16.65;;;3.20;99.90;;;;;;4930207;29;20227;-80
2023/02/10 09:01:22;;;;;;;27.95;17.85;;;3.20;99.90;;;;;;4923569;29;20407;-81
2023/02/10 09:03:52;;;;;;;31.30;17.85;;;3.10;99.90;;;;;;4919610;29;20239;-82
2023/02/10 09:06:23;;;;;;;25.55;16.05;;;3.00;99.90;;;;;;4933285;29;20194;-80
2023/02/10 09:08:52;;;;;;;24.45;15.30;;;2.90;99.90;;;;;;4926708;29;20215;-81
2023/02/10 09:11:23;;;;;;;32.13;15.55;;;3.00;99.90;;;;;;4922639;29;20270;-81
2023/02/10 09:13:50;;;;;;;24.60;15.40;;;3.30;99.90;;;;;;4924651;29;20246;-80
2023/02/10 09:16:18;;;;;;;20.00;14.40;;;3.30;99.90;;;;;;4927272;29;20214;-81
2023/02/10 09:18:47;;;;;;;23.83;14.32;;;3.90;99.90;;;;;;4937558;29;20219;-80
2023/02/10 09:21:14;;;;;;;27.50;15.85;;;4.20;99.90;;;;;;4936518;29;20424;-81
2023/02/10 09:23:41;;;;;;;29.88;16.55;;;4.30;99.90;;;;;;4940664;29;20278;-81
2023/02/10 09:26:11;;;;;;;27.85;14.45;;;4.50;99.90;;;;;;4932756;29;20606;-81
2023/02/10 09:28:39;;;;;;;24.67;13.70;;;4.60;99.90;;;;;;4933074;29;20211;-82
2023/02/10 09:31:07;;;;;;;28.20;17.33;;;4.40;99.90;;;;;;4925489;29;20207;-81
2023/02/10 09:33:34;;;;;;;24.00;15.75;;;4.60;99.90;;;;;;4927682;29;20234;-81
2023/02/10 09:36:04;;;;;;;27.52;16.52;;;4.70;99.90;;;;;;4932837;29;20210;-81
2023/02/10 09:38:33;;;;;;;31.88;14.85;;;4.80;99.90;;;;;;4929569;29;20227;-81
2023/02/10 09:41:09;;;;;;;20.20;14.43;;;4.90;99.90;;;;;;4928124;29;20282;-81
2023/02/10 09:43:51;;;;;;;23.13;15.10;;;4.80;99.90;;;;;;4926101;29;20219;-83
2023/02/10 09:46:44;;;;;;;26.48;12.05;;;4.80;99.90;;;;;;4921507;29;20208;-82
2023/02/10 09:49:20;;;;;;;23.15;14.38;;;4.70;99.90;;;;;;4931583;29;20243;-83
2023/02/10 09:52:11;;;;;;;23.42;14.77;;;4.80;99.90;;;;;;4932500;29;20421;-83
2023/02/10 09:54:39;;;;;;;21.80;12.93;;;4.90;99.90;;;;;;4936031;29;20226;-81
2023/02/10 09:57:18;;;;;;;25.73;15.57;;;4.90;99.90;;;;;;4926644;29;20207;-82
2023/02/10 09:59:50;;;;;;;26.05;13.63;;;5.20;99.90;;;;;;4934083;29;20215;-83
2023/02/10 10:02:44;;;;;;;27.65;14.38;;;5.70;99.90;;;;;;4919763;29;20232;-84
2023/02/10 10:05:58;;;;;;;28.30;15.07;;;5.80;99.90;;;;;;4920211;29;20381;-82
2023/02/10 10:08:47;;;;;;;26.48;15.63;;;5.70;99.90;;;;;;4922121;29;20279;-80
2023/02/10 10:11:36;;;;;;;32.53;14.30;;;5.70;99.90;;;;;;4931682;29;20203;-81
2023/02/10 10:14:03;;;;;;;24.52;12.25;;;5.90;99.90;;;;;;4934091;29;20216;-80
2023/02/10 10:17:01;;;;;;;21.85;13.18;;;6.30;99.90;;;;;;4932161;29;20509;-82
2023/02/10 10:19:49;;;;;;;22.27;13.35;;;6.10;99.90;;;;;;4923354;29;20212;-81
2023/02/10 10:22:37;;;;;;;27.90;12.50;;;6.20;99.90;;;;;;4925286;29;20204;-80
2023/02/10 10:25:16;;;;;;;19.45;13.15;;;6.20;99.90;;;;;;4917277;29;20282;-80
2023/02/10 10:27:52;;;;;;;25.48;12.40;;;6.20;99.90;;;;;;4938800;29;20457;-82
2023/02/10 10:30:40;;;;;;;17.38;11.43;;;6.00;99.90;;;;;;4929988;29;20208;-81
2023/02/10 10:33:31;;;;;;;27.35;14.95;;;5.80;99.90;;;;;;4939393;29;20228;-80
2023/02/10 10:36:01;;;;;;;23.17;12.48;;;5.40;99.90;;;;;;4932249;29;20492;-80
2023/02/10 10:38:31;;;;;;;28.23;14.13;;;5.30;99.90;;;;;;4933458;29;20243;-79
2023/02/10 10:41:04;;;;;;;23.90;13.68;;;5.20;99.90;;;;;;4927182;29;20259;-80
2023/02/10 10:43:36;;;;;;;23.25;11.82;;;5.10;99.90;;;;;;4927489;29;20224;-80
2023/02/10 10:46:25;;;;;;;24.52;12.13;;;5.10;99.90;;;;;;4935438;29;20503;-81
2023/02/10 10:48:53;;;;;;;23.65;14.05;;;5.20;99.90;;;;;;4926545;29;20277;-82
2023/02/10 10:51:19;;;;;;;23.55;12.95;;;5.40;99.90;;;;;;4932853;29;20207;-81
2023/02/10 10:53:52;;;;;;;23.02;13.63;;;5.60;99.90;;;;;;4926649;29;20207;-82
2023/02/10 10:56:52;;;;;;;35.42;15.55;;;5.50;99.90;;;;;;4925585;29;20267;-81
2023/02/10 10:59:27;;;;;;;24.63;13.75;;;5.50;99.90;;;;;;4921728;29;20208;-82
2023/02/10 11:01:54;;;;;;;36.28;16.60;;;5.90;99.90;;;;;;4929963;29;20212;-82
2023/02/10 11:04:24;;;;;;;17.75;13.02;;;6.20;99.90;;;;;;4932758;29;20207;-82
2023/02/10 11:06:56;;;;;;;29.33;16.27;;;6.50;99.90;;;;;;4932690;29;20208;-82
2023/02/10 11:09:31;;;;;;;28.27;16.10;;;6.50;99.90;;;;;;4934759;29;20254;-82
2023/02/10 11:12:03;;;;;;;24.92;15.13;;;6.50;99.90;;;;;;4938382;29;20234;-81
2023/02/10 11:14:40;;;;;;;31.38;15.05;;;6.40;99.90;;;;;;4941353;29;20251;-81
2023/02/10 11:17:25;;;;;;;28.70;15.73;;;6.10;99.90;;;;;;4945704;29;20239;-81
2023/02/10 11:20:06;;;;;;;30.60;17.08;;;6.20;99.90;;;;;;4929071;29;20211;-82
2023/02/10 11:22:33;;;;;;;28.08;14.15;;;6.30;99.90;;;;;;4941666;29;20211;-81
2023/02/10 11:25:02;;;;;;;30.60;14.60;;;6.30;99.90;;;;;;4941725;29;20203;-81
2023/02/10 11:27:29;;;;;;;37.45;16.85;;;6.30;99.90;;;;;;4937683;29;20243;-82
2023/02/10 11:29:58;;;;;;;25.88;16.13;;;6.50;99.90;;;;;;4936443;29;20215;-80
2023/02/10 11:32:34;;;;;;;38.22;17.40;;;6.40;99.90;;;;;;4937751;29;20255;-81
2023/02/10 11:35:04;;;;;;;38.85;16.77;;;6.30;99.90;;;;;;4929402;29;20203;-82
2023/02/10 11:37:37;;;;;;;26.95;14.80;;;6.40;99.90;;;;;;4941144;29;20220;-82
2023/02/10 11:40:24;;;;;;;32.53;17.38;;;6.40;99.90;;;;;;4929605;29;20208;-79
2023/02/10 11:42:54;;;;;;;24.27;14.05;;;6.30;99.90;;;;;;4931531;29;20219;-80
2023/02/10 11:45:25;;;;;;;35.08;16.48;;;6.50;99.90;;;;;;4937580;29;20267;-80
2023/02/10 11:48:16;;;;;;;29.98;16.10;;;7.10;99.90;;;;;;4918334;29;20298;-81
2023/02/10 11:50:44;;;;;;;24.17;14.40;;;7.10;99.90;;;;;;4925079;29;20240;-81
2023/02/10 11:53:27;;;;;;;34.95;18.77;;;6.90;99.90;;;;;;4937545;29;20283;-80
2023/02/10 11:59:18;;;;;;;22.30;13.80;;;6.90;99.90;;;;;;4926011;29;20216;-81
2023/02/10 12:01:56;;;;;;;15.20;11.73;;;7.10;99.90;;;;;;4926638;29;20251;-82
2023/02/10 12:04:42;;;;;;;24.15;13.02;;;7.00;99.90;;;;;;4929983;29;20413;-80
2023/02/10 12:07:33;;;;;;;24.05;12.95;;;6.70;99.90;;;;;;4924098;29;20223;-81
2023/02/10 12:10:38;;;;;;;22.63;11.95;;;6.50;99.90;;;;;;4924385;29;20215;-81
2023/02/10 12:13:36;;;;;;;22.67;11.35;;;6.40;99.90;;;;;;4925926;29;20220;-81
2023/02/10 12:16:24;;;;;;;23.67;12.68;;;6.60;99.90;;;;;;4934654;29;20205;-80
2023/02/10 12:19:14;;;;;;;23.05;11.93;;;6.60;99.90;;;;;;4908890;29;20237;-81
2023/02/10 12:22:05;;;;;;;18.75;11.60;;;6.30;99.90;;;;;;4957112;29;20202;-80
2023/02/10 12:24:56;;;;;;;21.17;12.23;;;6.30;99.90;;;;;;4960426;29;20192;-81
2023/02/10 12:27:59;;;;;;;19.58;11.43;;;6.30;99.90;;;;;;4958653;29;20270;-80
2023/02/10 12:30:43;;;;;;;19.55;11.95;;;6.20;99.90;;;;;;4936226;28;20214;-80
2023/02/10 12:33:16;;;;;;;27.13;13.00;;;6.20;99.90;;;;;;4947783;28;20247;-81
2023/02/10 12:36:05;;;;;;;23.83;12.32;;;6.20;99.90;;;;;;4949881;28;20235;-80
2023/02/10 12:39:10;;;;;;;27.50;13.40;;;6.20;99.90;;;;;;4950455;29;20271;-81
2023/02/10 12:41:55;;;;;;;22.30;13.57;;;6.20;99.90;;;;;;4928778;29;20211;-80
2023/02/10 12:44:39;;;;;;;22.30;12.43;;;6.20;99.90;;;;;;4945564;29;20211;-80
2023/02/10 12:47:31;;;;;;;19.13;11.52;;;6.30;99.90;;;;;;4947193;29;20216;-79
2023/02/10 12:50:28;;;;;;;28.58;12.60;;;6.20;99.90;;;;;;4946784;29;20224;-82
2023/02/10 12:53:18;;;;;;;21.52;11.63;;;6.10;99.90;;;;;;4930472;29;20232;-81
2023/02/10 12:56:05;;;;;;;23.38;13.85;;;5.90;99.90;;;;;;4934262;29;20264;-80
2023/02/10 12:58:34;;;;;;;21.75;13.65;;;5.80;99.90;;;;;;4919570;29;20457;-82
2023/02/10 13:01:25;;;;;;;23.00;14.75;;;6.00;99.90;;;;;;4932698;29;20212;-78